• Join FlightAware (Why Join?)
  • Login
  • US Flag 
08:41PM EDT


 

Airport Tracker/Info


-or-


 

Live Flight TrackerFlight Track Log ✈ AAL325 ✈ 25-Jul-2013 ✈ KLGA - KORD

Flight Track Log - Related Links

Times and Time Zones

All times are in EDT time to prevent confusion due to time zone crossing. See the AAL325 flight status page for this flight to view local times or setup timezone preferences in your user account.

Time Position Orientation Groundspeed Altitude Reporting Facility
EDT Latitude Longitude Course Direction KTS MPH feet Rate Location/Type
11:03AM 40.7500 -73.8167 312° West 185 213 2,100  Level New York TRACON
11:04AM 40.7833 -73.7500 57° Northeast 254 292 4,000 2,880 Climbing New York TRACON
11:05AM 40.9216 -74.2096 304° West  Level FlightAware Approximate
11:05AM 40.8500 -73.7667 349° North 253 291 8,000  Level New York TRACON
11:06AM 40.9800 -74.3266 303° West  Level FlightAware Approximate
11:06AM 40.9167 -73.8000 339° North 302 348 10,000  Level New York TRACON
11:07AM 41.0316 -74.4490 299° West  Level FlightAware Approximate
11:08AM 41.0721 -74.5748 312° West  Level FlightAware Approximate
11:09AM 41.0467 -74.1497 296° West 381 438 16,300  Level New York Center
11:10AM 41.0717 -74.2911 283° West 401 461 19,100 2,700 Climbing New York Center
11:11AM 41.0944 -74.4356 282° West 396 456 21,700 2,040 Climbing New York Center
11:12AM 41.1167 -74.5828 281° West 401 461 23,300 1,500 Climbing New York Center
11:13AM 41.1517 -74.7253 288° West 406 467 24,800 1,080 Climbing New York Center
11:14AM 41.2133 -74.8694 300° West 426 490 25,500 1,140 Climbing New York Center
11:15AM 41.2747 -75.0167 299° West 439 505 27,100 1,440 Climbing New York Center
11:16AM 41.3383 -75.1617 300° West 451 519 28,400 1,200 Climbing New York Center
11:17AM 41.4033 -75.3125 300° West 456 525 29,600 1,200 Climbing New York Center
11:18AM 41.4683 -75.4636 300° West 462 532 30,800 1,140 Climbing New York Center
11:19AM 41.5158 -75.6250 292° West 468 539 31,900 1,080 Climbing New York Center
11:20AM 41.5614 -75.7861 291° West 468 539 33,000 1,020 Climbing New York Center
11:21AM 41.6086 -75.9450 292° West 468 539 34,000 480 Climbing New York Center
11:22AM 41.6539 -76.1014 291° West 463 533 34,000  Level New York Center
11:23AM 41.6986 -76.2606 291° West 458 527 34,000  Level New York Center
11:24AM 41.7378 -76.4028 290° West 458 527 34,000  Level New York Center
11:25AM 41.7858 -76.5736 291° West 458 527 34,000  Level New York Center
11:27AM 41.8831 -76.9292 290° West 457 526 34,000  Level Cleveland Center
11:28AM 41.9236 -77.0889 289° West 457 526 34,000  Level Cleveland Center
11:29AM 41.9700 -77.2483 291° West 462 532 34,000  Level Cleveland Center
11:30AM 42.0100 -77.4083 289° West 462 532 34,000  Level Cleveland Center
11:31AM 42.0539 -77.5628 291° West 457 526 34,000  Level Cleveland Center
11:32AM 42.0953 -77.7233 289° West 457 526 34,000  Level Cleveland Center
11:33AM 42.1367 -77.8783 290° West 457 526 34,000  Level Cleveland Center
11:34AM 42.1778 -78.0361 289° West 457 526 34,000  Level Cleveland Center
11:35AM 42.2167 -78.1972 288° West 457 526 34,000  Level Cleveland Center
11:36AM 42.2572 -78.3528 289° West 452 520 34,000  Level Cleveland Center
11:37AM 42.3000 -78.5114 290° West 452 520 34,000  Level Cleveland Center
11:38AM 42.3400 -78.6675 289° West 452 520 34,000  Level Cleveland Center
11:39AM 42.3803 -78.8264 289° West 447 514 34,000  Level Cleveland Center
11:40AM 42.4133 -78.9633 288° West 441 507 34,000  Level Cleveland Center
11:41AM 42.4594 -79.1422 289° West 446 513 34,000  Level Cleveland Center
11:42AM 42.4925 -79.2850 287° West 446 513 34,000  Level Cleveland Center
11:43AM 42.5025 -79.4456 275° West 435 501 34,000  Level Cleveland Center
11:44AM 42.5083 -79.6086 273° West 430 495 34,000  Level Cleveland Center
11:45AM 42.5178 -79.7747 274° West 435 501 34,000  Level Cleveland Center
11:46AM 42.5250 -79.9381 273° West 440 506 34,000  Level Cleveland Center
11:47AM 42.5281 -80.1042 271° West 440 506 34,000  Level Cleveland Center
11:48AM 42.5369 -80.2703 274° West 440 506 34,000  Level Cleveland Center
11:49AM 42.5436 -80.4367 273° West 440 506 34,000  Level Cleveland Center
11:50AM 42.5519 -80.6058 274° West 439 505 34,000  Level Cleveland Center
11:51AM 42.5581 -80.7719 273° West 446 513 34,000  Level Cleveland Center
11:52AM 42.5617 -80.9497 272° West 440 506 34,000  Level Cleveland Center
11:53AM 42.5694 -81.1161 274° West 440 506 34,000  Level Cleveland Center
11:54AM 42.5747 -81.2825 273° West 440 506 34,000  Level Cleveland Center
11:55AM 42.5819 -81.4489 273° West 445 512 34,000  Level Cleveland Center
11:56AM 42.6097 -81.6072 283° West 438 504 34,000  Level Cleveland Center
11:57AM 42.6394 -81.7686 284° West 438 504 34,000  Level Cleveland Center
11:58AM 42.6631 -81.9103 283° West 433 498 34,000  Level Cleveland Center
11:59AM 42.6922 -82.0719 284° West 433 498 34,000  Level Cleveland Center
12:00PM 42.7194 -82.2336 283° West 433 498 34,000  Level Cleveland Center
12:01PM 42.7481 -82.3956 284° West 433 498 34,000  Level Cleveland Center
12:02PM 42.7725 -82.5547 282° West 433 498 34,000  Level Cleveland Center
12:03PM 42.8011 -82.7169 284° West 433 498 34,000  Level Cleveland Center
12:04PM 42.8272 -82.8764 283° West 433 498 34,000  Level Cleveland Center
12:05PM 42.8531 -83.0358 283° West 433 498 34,000  Level Cleveland Center
12:06PM 42.8767 -83.1925 282° West 433 498 34,000  Level Cleveland Center
12:07PM 42.9042 -83.3525 283° West 433 498 34,000  Level Cleveland Center
12:08PM 42.9294 -83.5094 282° West 433 498 34,000 -120 Level Cleveland Center
12:09PM 42.9525 -83.6667 281° West 433 498 33,800 -600 Descending Cleveland Center
12:10PM 42.9583 -83.8317 273° West 433 498 32,800 -900 Descending Cleveland Center
12:11PM 42.9433 -83.9953 263° West 426 490 32,000 -420 Descending Cleveland Center
12:12PM 42.9258 -84.1561 262° West 436 502 32,000  Level Cleveland Center
12:13PM 42.9147 -84.2825 263° West 441 507 32,000  Level Chicago Center
12:14PM 42.8983 -84.4464 262° West 438 504 32,000  Level Chicago Center
12:15PM 42.8817 -84.6111 262° West 439 505 32,000  Level Chicago Center
12:16PM 42.8644 -84.7767 262° West 442 509 32,000 -300 Level Chicago Center
12:17PM 42.8442 -84.9728 262° West 437 503 31,400 -780 Descending Chicago Center
12:18PM 42.8261 -85.1381 262° West 441 507 30,400 -1,500 Descending Chicago Center
12:19PM 42.8081 -85.3050 262° West 444 511 28,400 -1,920 Descending Chicago Center
12:20PM 42.7894 -85.4714 261° West 445 512 26,500 -2,040 Descending Chicago Center
12:21PM 42.7628 -85.6303 257° West 435 501 24,300 -2,340 Descending Chicago Center
12:22PM 42.7364 -85.7856 257° West 422 486 21,700 -2,100 Descending Chicago Center
12:23PM 42.7081 -85.9328 255° West 405 466 20,000 -840 Descending Chicago Center
12:24PM 42.6769 -86.1083 257° West 396 456 20,000  Level Chicago Center
12:25PM 42.6494 -86.2533 256° West 396 456 20,000  Level Chicago Center
12:26PM 42.6228 -86.3964 256° West 391 450 20,000 -60 Level Chicago Center
12:27PM 42.5953 -86.5406 256° West 394 453 19,900 -1,140 Descending Chicago Center
12:29PM 42.5678 -86.7033 257° West 393 452 17,700 -2,340 Descending Chicago Center
12:30PM 42.5378 -86.8208 251° West 384 442 15,100 -2,940 Descending Chicago Center
12:31PM 42.5031 -86.9464 249° West 365 420 11,700 -2,400 Descending Chicago Center
12:32PM 42.4614 -87.0881 248° West 340 391 10,200 -1,260 Descending Chicago Center
12:33PM 42.4231 -87.1792 240° Southwest 300 345 9,200 -600 Descending Chicago Center
12:34PM 42.3467 -87.2147 199° South 293 337 9,000 -240 Descending Chicago Center
12:35PM 42.2633 -87.2464 196° South 288 331 8,800 -780 Descending Chicago Center
12:36PM 42.1856 -87.2753 195° South 290 334 7,400 -1,200 Descending Chicago Center
12:37PM 42.1092 -87.2861 186° South 280 322 6,400 -1,080 Descending Chicago Center
12:38PM 42.0383 -87.3131 196° South 278 320 5,200 -720 Descending Chicago Center
12:39PM 41.9969 -87.4219 243° Southwest 273 314 5,000 -120 Descending Chicago Center
12:40PM 41.9839 -87.5181 260° West 272 313 5,000  Level Chicago Center